sensor_id;sensor_type;location;lat;lon;timestamp;pressure;altitude;pressure_sealevel;temperature;humidity
4398;BME280;2213;49.720;7.296;2023-07-16T00:01:56;97805.44;;;20.23;100.00
4398;BME280;2213;49.720;7.296;2023-07-16T00:04:25;97805.72;;;20.27;100.00
4398;BME280;2213;49.720;7.296;2023-07-16T00:06:56;97799.66;;;20.31;100.00
4398;BME280;2213;49.720;7.296;2023-07-16T00:09:27;97812.31;;;20.24;100.00
4398;BME280;2213;49.720;7.296;2023-07-16T00:11:57;97806.53;;;20.27;100.00
4398;BME280;2213;49.720;7.296;2023-07-16T00:14:27;97809.13;;;20.22;100.00
4398;BME280;2213;49.720;7.296;2023-07-16T00:16:58;97817.63;;;20.24;100.00
4398;BME280;2213;49.720;7.296;2023-07-16T00:19:28;97814.97;;;20.24;100.00
4398;BME280;2213;49.720;7.296;2023-07-16T00:22:00;97819.50;;;20.24;100.00
4398;BME280;2213;49.720;7.296;2023-07-16T00:24:30;97808.34;;;20.22;100.00
4398;BME280;2213;49.720;7.296;2023-07-16T00:27:00;97797.72;;;20.22;100.00
4398;BME280;2213;49.720;7.296;2023-07-16T00:29:32;97795.59;;;20.24;100.00
4398;BME280;2213;49.720;7.296;2023-07-16T00:32:01;97796.88;;;20.16;100.00
4398;BME280;2213;49.720;7.296;2023-07-16T00:34:32;97799.03;;;20.19;100.00
4398;BME280;2213;49.720;7.296;2023-07-16T00:37:04;97800.59;;;20.15;100.00
4398;BME280;2213;49.720;7.296;2023-07-16T00:39:34;97798.72;;;20.16;100.00
4398;BME280;2213;49.720;7.296;2023-07-16T00:42:05;97801.41;;;20.21;100.00
4398;BME280;2213;49.720;7.296;2023-07-16T00:44:36;97801.69;;;20.24;100.00
4398;BME280;2213;49.720;7.296;2023-07-16T00:47:06;97797.94;;;20.20;100.00
4398;BME280;2213;49.720;7.296;2023-07-16T00:49:38;97798.97;;;20.14;100.00
4398;BME280;2213;49.720;7.296;2023-07-16T00:52:18;97809.31;;;20.10;100.00
4398;BME280;2213;49.720;7.296;2023-07-16T00:54:49;97813.81;;;20.10;100.00
4398;BME280;2213;49.720;7.296;2023-07-16T00:57:20;97823.34;;;20.06;100.00
4398;BME280;2213;49.720;7.296;2023-07-16T00:59:49;97824.41;;;20.05;100.00
4398;BME280;2213;49.720;7.296;2023-07-16T01:02:19;97830.72;;;19.99;100.00
4398;BME280;2213;49.720;7.296;2023-07-16T01:04:49;97831.47;;;19.94;100.00
4398;BME280;2213;49.720;7.296;2023-07-16T01:07:24;97838.13;;;19.97;100.00
4398;BME280;2213;49.720;7.296;2023-07-16T01:09:55;97845.03;;;19.98;100.00
4398;BME280;2213;49.720;7.296;2023-07-16T01:12:27;97835.09;;;19.83;100.00
4398;BME280;2213;49.720;7.296;2023-07-16T01:14:58;97844.59;;;19.79;100.00
4398;BME280;2213;49.720;7.296;2023-07-16T01:17:29;97842.72;;;19.75;100.00
4398;BME280;2213;49.720;7.296;2023-07-16T01:20:00;97851.44;;;19.75;100.00
4398;BME280;2213;49.720;7.296;2023-07-16T01:26:19;97864.19;;;19.73;100.00
4398;BME280;2213;49.720;7.296;2023-07-16T01:29:30;97859.69;;;19.74;100.00
4398;BME280;2213;49.720;7.296;2023-07-16T01:32:05;97861.28;;;19.75;100.00
4398;BME280;2213;49.720;7.296;2023-07-16T01:34:37;97865.50;;;19.71;100.00
4398;BME280;2213;49.720;7.296;2023-07-16T01:37:08;97874.25;;;19.71;100.00
4398;BME280;2213;49.720;7.296;2023-07-16T01:39:38;97868.06;;;19.66;100.00
4398;BME280;2213;49.720;7.296;2023-07-16T01:42:08;97868.56;;;19.63;100.00
4398;BME280;2213;49.720;7.296;2023-07-16T01:44:38;97866.16;;;19.61;100.00
4398;BME280;2213;49.720;7.296;2023-07-16T01:47:11;97861.16;;;19.65;100.00
4398;BME280;2213;49.720;7.296;2023-07-16T01:49:41;97864.19;;;19.51;100.00
4398;BME280;2213;49.720;7.296;2023-07-16T01:52:12;97866.81;;;19.46;100.00
4398;BME280;2213;49.720;7.296;2023-07-16T01:54:42;97871.03;;;19.47;100.00
4398;BME280;2213;49.720;7.296;2023-07-16T01:57:12;97872.66;;;19.48;100.00
4398;BME280;2213;49.720;7.296;2023-07-16T01:59:45;97878.84;;;19.37;100.00
4398;BME280;2213;49.720;7.296;2023-07-16T02:02:14;97882.16;;;19.44;100.00
4398;BME280;2213;49.720;7.296;2023-07-16T02:04:44;97880.56;;;19.43;100.00
4398;BME280;2213;49.720;7.296;2023-07-16T02:07:15;97876.69;;;19.34;100.00
4398;BME280;2213;49.720;7.296;2023-07-16T02:09:45;97879.03;;;19.31;100.00
4398;BME280;2213;49.720;7.296;2023-07-16T02:12:15;97882.47;;;19.26;100.00
4398;BME280;2213;49.720;7.296;2023-07-16T02:14:47;97891.69;;;19.24;100.00
4398;BME280;2213;49.720;7.296;2023-07-16T02:17:18;97888.72;;;19.20;100.00
4398;BME280;2213;49.720;7.296;2023-07-16T02:19:48;97890.63;;;19.03;100.00
4398;BME280;2213;49.720;7.296;2023-07-16T02:22:19;97889.81;;;19.02;100.00
4398;BME280;2213;49.720;7.296;2023-07-16T02:24:49;97891.72;;;19.07;100.00
4398;BME280;2213;49.720;7.296;2023-07-16T02:27:20;97899.28;;;19.15;100.00
4398;BME280;2213;49.720;7.296;2023-07-16T02:29:51;97887.06;;;19.14;100.00
4398;BME280;2213;49.720;7.296;2023-07-16T02:32:22;97893.34;;;19.08;100.00
4398;BME280;2213;49.720;7.296;2023-07-16T02:34:52;97900.19;;;19.04;100.00
4398;BME280;2213;49.720;7.296;2023-07-16T02:37:21;97896.50;;;19.05;100.00
4398;BME280;2213;49.720;7.296;2023-07-16T02:39:52;97899.56;;;18.97;100.00
4398;BME280;2213;49.720;7.296;2023-07-16T02:42:21;97909.75;;;18.88;100.00
4398;BME280;2213;49.720;7.296;2023-07-16T02:44:53;97903.19;;;18.91;100.00
4398;BME280;2213;49.720;7.296;2023-07-16T02:47:22;97912.16;;;18.90;100.00
4398;BME280;2213;49.720;7.296;2023-07-16T02:49:52;97915.84;;;18.89;100.00
4398;BME280;2213;49.720;7.296;2023-07-16T02:52:21;97916.34;;;18.86;100.00
4398;BME280;2213;49.720;7.296;2023-07-16T02:54:52;97919.34;;;18.73;100.00
4398;BME280;2213;49.720;7.296;2023-07-16T02:57:22;97931.28;;;18.75;100.00
4398;BME280;2213;49.720;7.296;2023-07-16T02:59:53;97934.69;;;18.71;100.00
4398;BME280;2213;49.720;7.296;2023-07-16T03:02:23;97937.34;;;18.71;100.00
4398;BME280;2213;49.720;7.296;2023-07-16T03:04:54;97935.72;;;18.70;100.00
4398;BME280;2213;49.720;7.296;2023-07-16T03:07:25;97948.81;;;18.76;100.00
4398;BME280;2213;49.720;7.296;2023-07-16T03:09:56;97946.38;;;18.75;100.00
4398;BME280;2213;49.720;7.296;2023-07-16T03:12:26;97948.31;;;18.79;100.00
4398;BME280;2213;49.720;7.296;2023-07-16T03:14:58;97943.28;;;18.78;100.00
4398;BME280;2213;49.720;7.296;2023-07-16T03:17:29;97945.28;;;18.71;100.00
4398;BME280;2213;49.720;7.296;2023-07-16T03:19:58;97944.16;;;18.67;100.00
4398;BME280;2213;49.720;7.296;2023-07-16T03:22:29;97950.25;;;18.67;100.00
4398;BME280;2213;49.720;7.296;2023-07-16T03:24:59;97955.69;;;18.60;100.00
4398;BME280;2213;49.720;7.296;2023-07-16T03:27:31;97959.25;;;18.66;100.00
4398;BME280;2213;49.720;7.296;2023-07-16T03:30:03;97963.97;;;18.64;100.00
4398;BME280;2213;49.720;7.296;2023-07-16T03:32:34;97963.41;;;18.62;100.00
4398;BME280;2213;49.720;7.296;2023-07-16T03:35:20;97962.69;;;18.67;100.00
4398;BME280;2213;49.720;7.296;2023-07-16T03:37:52;97960.66;;;18.57;100.00
4398;BME280;2213;49.720;7.296;2023-07-16T03:40:26;97969.91;;;18.54;100.00
4398;BME280;2213;49.720;7.296;2023-07-16T03:42:56;97970.94;;;18.53;100.00
4398;BME280;2213;49.720;7.296;2023-07-16T03:45:28;97973.97;;;18.45;100.00
4398;BME280;2213;49.720;7.296;2023-07-16T03:47:59;97969.69;;;18.44;100.00
4398;BME280;2213;49.720;7.296;2023-07-16T03:50:30;97972.59;;;18.43;100.00
4398;BME280;2213;49.720;7.296;2023-07-16T03:52:59;97978.13;;;18.41;100.00
4398;BME280;2213;49.720;7.296;2023-07-16T03:55:31;97975.69;;;18.40;100.00
4398;BME280;2213;49.720;7.296;2023-07-16T03:58:00;97975.84;;;18.33;100.00
4398;BME280;2213;49.720;7.296;2023-07-16T04:00:31;97983.41;;;18.41;100.00
4398;BME280;2213;49.720;7.296;2023-07-16T04:03:02;97988.16;;;18.39;100.00
4398;BME280;2213;49.720;7.296;2023-07-16T04:05:31;97989.09;;;18.33;100.00
4398;BME280;2213;49.720;7.296;2023-07-16T04:08:01;97988.53;;;18.31;100.00
4398;BME280;2213;49.720;7.296;2023-07-16T04:10:32;97990.59;;;18.29;100.00
4398;BME280;2213;49.720;7.296;2023-07-16T04:13:03;97995.44;;;18.32;100.00
4398;BME280;2213;49.720;7.296;2023-07-16T04:15:35;97996.47;;;18.31;100.00
4398;BME280;2213;49.720;7.296;2023-07-16T04:18:04;97993.16;;;18.24;100.00
4398;BME280;2213;49.720;7.296;2023-07-16T04:20:32;97993.16;;;18.24;100.00
4398;BME280;2213;49.720;7.296;2023-07-16T04:23:03;97992.38;;;18.24;100.00
4398;BME280;2213;49.720;7.296;2023-07-16T04:25:33;97996.53;;;18.20;100.00
4398;BME280;2213;49.720;7.296;2023-07-16T04:28:04;97999.91;;;18.15;100.00
4398;BME280;2213;49.720;7.296;2023-07-16T04:30:34;98000.81;;;18.09;100.00
4398;BME280;2213;49.720;7.296;2023-07-16T04:33:06;97992.88;;;18.09;100.00
4398;BME280;2213;49.720;7.296;2023-07-16T04:35:36;97999.47;;;18.06;100.00
4398;BME280;2213;49.720;7.296;2023-07-16T04:38:06;97994.97;;;18.07;100.00
4398;BME280;2213;49.720;7.296;2023-07-16T04:40:37;97993.34;;;18.06;100.00
4398;BME280;2213;49.720;7.296;2023-07-16T04:43:08;98002.09;;;18.06;100.00
4398;BME280;2213;49.720;7.296;2023-07-16T04:45:40;98005.78;;;18.05;100.00
4398;BME280;2213;49.720;7.296;2023-07-16T04:48:10;98004.31;;;17.98;100.00
4398;BME280;2213;49.720;7.296;2023-07-16T04:50:39;98009.16;;;18.01;100.00
4398;BME280;2213;49.720;7.296;2023-07-16T04:53:09;98011.06;;;18.05;100.00
4398;BME280;2213;49.720;7.296;2023-07-16T04:55:39;98017.09;;;18.01;100.00
4398;BME280;2213;49.720;7.296;2023-07-16T04:58:11;98014.09;;;17.97;100.00
4398;BME280;2213;49.720;7.296;2023-07-16T05:00:43;98018.13;;;18.00;100.00
4398;BME280;2213;49.720;7.296;2023-07-16T05:03:13;98018.13;;;18.00;100.00
4398;BME280;2213;49.720;7.296;2023-07-16T05:05:43;98031.44;;;18.05;100.00
4398;BME280;2213;49.720;7.296;2023-07-16T05:08:13;98024.63;;;18.09;100.00
4398;BME280;2213;49.720;7.296;2023-07-16T05:10:43;98032.59;;;18.09;100.00
4398;BME280;2213;49.720;7.296;2023-07-16T05:13:14;98038.47;;;18.11;100.00
4398;BME280;2213;49.720;7.296;2023-07-16T05:15:46;98039.00;;;18.13;100.00
4398;BME280;2213;49.720;7.296;2023-07-16T05:18:16;98046.88;;;18.08;100.00
4398;BME280;2213;49.720;7.296;2023-07-16T05:20:47;98041.44;;;18.15;100.00
4398;BME280;2213;49.720;7.296;2023-07-16T05:23:17;98055.00;;;18.18;100.00
4398;BME280;2213;49.720;7.296;2023-07-16T05:25:50;98046.59;;;18.21;100.00
4398;BME280;2213;49.720;7.296;2023-07-16T05:28:21;98056.72;;;18.24;100.00
4398;BME280;2213;49.720;7.296;2023-07-16T05:30:59;98050.59;;;18.24;100.00
4398;BME280;2213;49.720;7.296;2023-07-16T05:33:29;98060.88;;;18.20;100.00
4398;BME280;2213;49.720;7.296;2023-07-16T05:35:59;98059.25;;;18.19;100.00
4398;BME280;2213;49.720;7.296;2023-07-16T05:38:32;98049.94;;;18.17;100.00
4398;BME280;2213;49.720;7.296;2023-07-16T05:41:03;98062.94;;;18.18;100.00
4398;BME280;2213;49.720;7.296;2023-07-16T05:43:33;98072.94;;;18.16;100.00
4398;BME280;2213;49.720;7.296;2023-07-16T05:46:05;98064.94;;;18.11;100.00
4398;BME280;2213;49.720;7.296;2023-07-16T05:48:36;98066.28;;;18.14;100.00
4398;BME280;2213;49.720;7.296;2023-07-16T05:51:05;98078.50;;;18.15;100.00
4398;BME280;2213;49.720;7.296;2023-07-16T05:53:35;98081.81;;;18.22;100.00
4398;BME280;2213;49.720;7.296;2023-07-16T05:56:06;98081.69;;;18.17;100.00
4398;BME280;2213;49.720;7.296;2023-07-16T05:58:36;98088.63;;;18.06;100.00
4398;BME280;2213;49.720;7.296;2023-07-16T06:01:09;98083.81;;;18.03;100.00
4398;BME280;2213;49.720;7.296;2023-07-16T06:03:38;98087.13;;;18.10;100.00
4398;BME280;2213;49.720;7.296;2023-07-16T06:06:09;98086.19;;;18.16;100.00
4398;BME280;2213;49.720;7.296;2023-07-16T06:08:42;98090.09;;;18.25;100.00
4398;BME280;2213;49.720;7.296;2023-07-16T06:11:13;98087.66;;;18.24;100.00
4398;BME280;2213;49.720;7.296;2023-07-16T06:13:43;98093.53;;;18.26;100.00
4398;BME280;2213;49.720;7.296;2023-07-16T06:16:15;98098.59;;;18.27;100.00
4398;BME280;2213;49.720;7.296;2023-07-16T06:18:46;98097.78;;;18.27;100.00
4398;BME280;2213;49.720;7.296;2023-07-16T06:21:15;98099.16;;;18.29;100.00
4398;BME280;2213;49.720;7.296;2023-07-16T06:23:45;98104.56;;;18.34;100.00
4398;BME280;2213;49.720;7.296;2023-07-16T06:26:17;98090.63;;;18.39;100.00
4398;BME280;2213;49.720;7.296;2023-07-16T06:28:49;98094.16;;;18.44;100.00
4398;BME280;2213;49.720;7.296;2023-07-16T06:31:22;98092.44;;;18.50;100.00
4398;BME280;2213;49.720;7.296;2023-07-16T06:33:53;98096.00;;;18.55;100.00
4398;BME280;2213;49.720;7.296;2023-07-16T06:36:26;98091.63;;;18.49;100.00
4398;BME280;2213;49.720;7.296;2023-07-16T06:38:59;98104.44;;;18.52;100.00
4398;BME280;2213;49.720;7.296;2023-07-16T06:41:29;98102.91;;;18.56;100.00
4398;BME280;2213;49.720;7.296;2023-07-16T06:44:00;98101.78;;;18.52;100.00
4398;BME280;2213;49.720;7.296;2023-07-16T06:46:31;98112.38;;;18.52;100.00
4398;BME280;2213;49.720;7.296;2023-07-16T06:49:02;98108.22;;;18.56;100.00
4398;BME280;2213;49.720;7.296;2023-07-16T06:51:32;98098.06;;;18.53;100.00
4398;BME280;2213;49.720;7.296;2023-07-16T06:54:02;98116.50;;;18.48;100.00
4398;BME280;2213;49.720;7.296;2023-07-16T06:56:33;98116.97;;;18.45;100.00
4398;BME280;2213;49.720;7.296;2023-07-16T06:59:04;98104.69;;;18.39;100.00
4398;BME280;2213;49.720;7.296;2023-07-16T07:01:36;98110.88;;;18.45;100.00
4398;BME280;2213;49.720;7.296;2023-07-16T07:04:07;98108.00;;;18.46;100.00
4398;BME280;2213;49.720;7.296;2023-07-16T07:06:39;98100.06;;;18.46;100.00
4398;BME280;2213;49.720;7.296;2023-07-16T07:09:09;98102.34;;;18.54;100.00
4398;BME280;2213;49.720;7.296;2023-07-16T07:11:39;98113.63;;;18.50;100.00
4398;BME280;2213;49.720;7.296;2023-07-16T07:14:09;98118.69;;;18.51;100.00
4398;BME280;2213;49.720;7.296;2023-07-16T07:16:41;98112.81;;;18.49;100.00
4398;BME280;2213;49.720;7.296;2023-07-16T07:19:11;98112.81;;;18.49;100.00
4398;BME280;2213;49.720;7.296;2023-07-16T07:21:42;98122.38;;;18.50;100.00
4398;BME280;2213;49.720;7.296;2023-07-16T07:24:11;98127.91;;;18.49;100.00
4398;BME280;2213;49.720;7.296;2023-07-16T07:26:40;98118.47;;;18.53;100.00
4398;BME280;2213;49.720;7.296;2023-07-16T07:29:10;98110.88;;;18.56;100.00
4398;BME280;2213;49.720;7.296;2023-07-16T07:31:41;98110.28;;;18.54;100.00
4398;BME280;2213;49.720;7.296;2023-07-16T07:34:11;98113.19;;;18.53;100.00
4398;BME280;2213;49.720;7.296;2023-07-16T07:36:41;98108.66;;;18.53;100.00
4398;BME280;2213;49.720;7.296;2023-07-16T07:39:11;98114.88;;;18.59;100.00
4398;BME280;2213;49.720;7.296;2023-07-16T07:41:41;98116.25;;;18.62;100.00
4398;BME280;2213;49.720;7.296;2023-07-16T07:44:11;98112.88;;;18.66;100.00
4398;BME280;2213;49.720;7.296;2023-07-16T07:46:42;98118.59;;;18.75;100.00
4398;BME280;2213;49.720;7.296;2023-07-16T07:49:11;98117.56;;;18.76;100.00
4398;BME280;2213;49.720;7.296;2023-07-16T07:51:41;98106.97;;;18.76;100.00
4398;BME280;2213;49.720;7.296;2023-07-16T07:54:11;98113.88;;;18.77;100.00
4398;BME280;2213;49.720;7.296;2023-07-16T07:56:41;98119.66;;;18.74;100.00
4398;BME280;2213;49.720;7.296;2023-07-16T07:59:11;98113.41;;;18.80;100.00
4398;BME280;2213;49.720;7.296;2023-07-16T08:01:42;98126.50;;;18.86;100.00
4398;BME280;2213;49.720;7.296;2023-07-16T08:04:11;98123.69;;;18.93;100.00
4398;BME280;2213;49.720;7.296;2023-07-16T08:06:42;98120.69;;;19.01;100.00
4398;BME280;2213;49.720;7.296;2023-07-16T08:09:13;98120.75;;;19.06;100.00
4398;BME280;2213;49.720;7.296;2023-07-16T08:11:43;98122.13;;;19.08;100.00
4398;BME280;2213;49.720;7.296;2023-07-16T08:14:13;98130.75;;;19.16;100.00
4398;BME280;2213;49.720;7.296;2023-07-16T08:16:43;98130.00;;;19.20;100.00
4398;BME280;2213;49.720;7.296;2023-07-16T08:19:13;98127.94;;;19.22;100.00
4398;BME280;2213;49.720;7.296;2023-07-16T08:21:43;98133.88;;;19.29;99.86
4398;BME280;2213;49.720;7.296;2023-07-16T08:24:12;98137.75;;;19.38;99.60
4398;BME280;2213;49.720;7.296;2023-07-16T08:26:41;98130.31;;;19.40;98.29
4398;BME280;2213;49.720;7.296;2023-07-16T08:29:11;98134.41;;;19.43;97.14
4398;BME280;2213;49.720;7.296;2023-07-16T08:31:43;98141.28;;;19.44;96.47
4398;BME280;2213;49.720;7.296;2023-07-16T08:34:12;98140.09;;;19.51;96.19
4398;BME280;2213;49.720;7.296;2023-07-16T08:36:41;98148.69;;;19.58;94.18
4398;BME280;2213;49.720;7.296;2023-07-16T08:39:12;98152.00;;;19.66;94.82
4398;BME280;2213;49.720;7.296;2023-07-16T08:41:42;98142.41;;;19.65;92.92
4398;BME280;2213;49.720;7.296;2023-07-16T08:44:12;98146.13;;;19.64;93.02
4398;BME280;2213;49.720;7.296;2023-07-16T08:46:43;98143.72;;;19.62;93.21
4398;BME280;2213;49.720;7.296;2023-07-16T08:49:16;98141.31;;;19.61;91.72
4398;BME280;2213;49.720;7.296;2023-07-16T08:51:48;98144.91;;;19.54;90.98
4398;BME280;2213;49.720;7.296;2023-07-16T08:54:18;98145.81;;;19.60;91.47
4398;BME280;2213;49.720;7.296;2023-07-16T08:56:48;98145.00;;;19.59;90.99
4398;BME280;2213;49.720;7.296;2023-07-16T08:59:18;98142.34;;;19.59;89.87
4398;BME280;2213;49.720;7.296;2023-07-16T09:01:48;98138.09;;;19.58;88.92
4398;BME280;2213;49.720;7.296;2023-07-16T09:04:18;98141.88;;;19.63;88.83
4398;BME280;2213;49.720;7.296;2023-07-16T09:06:47;98138.81;;;19.71;89.59
4398;BME280;2213;49.720;7.296;2023-07-16T09:09:22;98146.13;;;19.80;90.17
4398;BME280;2213;49.720;7.296;2023-07-16T09:11:52;98144.09;;;19.87;90.86
4398;BME280;2213;49.720;7.296;2023-07-16T09:14:21;98152.19;;;19.97;87.86
4398;BME280;2213;49.720;7.296;2023-07-16T09:16:52;98142.44;;;20.03;85.99
4398;BME280;2213;49.720;7.296;2023-07-16T09:19:22;98133.50;;;20.09;84.97
4398;BME280;2213;49.720;7.296;2023-07-16T09:21:52;98141.53;;;20.14;86.15
4398;BME280;2213;49.720;7.296;2023-07-16T09:24:22;98152.78;;;20.21;83.96
4398;BME280;2213;49.720;7.296;2023-07-16T09:26:52;98145.69;;;20.27;82.38
4398;BME280;2213;49.720;7.296;2023-07-16T09:29:24;98160.69;;;20.33;82.65
4398;BME280;2213;49.720;7.296;2023-07-16T09:32:00;98160.69;;;20.33;81.80
4398;BME280;2213;49.720;7.296;2023-07-16T09:34:31;98158.81;;;20.33;80.58
4398;BME280;2213;49.720;7.296;2023-07-16T09:37:02;98166.03;;;20.38;81.96
4398;BME280;2213;49.720;7.296;2023-07-16T09:39:33;98158.38;;;20.41;81.07
4398;BME280;2213;49.720;7.296;2023-07-16T09:42:05;98160.06;;;20.47;81.46
4398;BME280;2213;49.720;7.296;2023-07-16T09:44:36;98153.69;;;20.48;80.78
4398;BME280;2213;49.720;7.296;2023-07-16T09:47:08;98171.84;;;20.56;82.29
4398;BME280;2213;49.720;7.296;2023-07-16T09:49:39;98159.06;;;20.53;79.95
4398;BME280;2213;49.720;7.296;2023-07-16T09:52:09;98170.03;;;20.62;81.61
4398;BME280;2213;49.720;7.296;2023-07-16T09:54:40;98169.19;;;20.56;80.54
4398;BME280;2213;49.720;7.296;2023-07-16T09:57:10;98161.22;;;20.56;81.50
4398;BME280;2213;49.720;7.296;2023-07-16T09:59:40;98165.22;;;20.59;79.59
4398;BME280;2213;49.720;7.296;2023-07-16T10:02:12;98170.31;;;20.61;77.29
4398;BME280;2213;49.720;7.296;2023-07-16T10:04:41;98175.06;;;20.58;76.75
4398;BME280;2213;49.720;7.296;2023-07-16T10:07:20;98160.72;;;20.59;76.69
4398;BME280;2213;49.720;7.296;2023-07-16T10:09:55;98161.75;;;20.58;75.03
4398;BME280;2213;49.720;7.296;2023-07-16T10:12:26;98154.06;;;20.57;75.48
4398;BME280;2213;49.720;7.296;2023-07-16T10:14:56;98167.34;;;20.57;76.60
4398;BME280;2213;49.720;7.296;2023-07-16T10:17:31;98170.25;;;20.55;76.01
4398;BME280;2213;49.720;7.296;2023-07-16T10:20:08;98168.03;;;20.47;73.83
4398;BME280;2213;49.720;7.296;2023-07-16T10:22:40;98169.69;;;20.53;74.22
4398;BME280;2213;49.720;7.296;2023-07-16T10:25:22;98167.38;;;20.62;74.52
4398;BME280;2213;49.720;7.296;2023-07-16T10:27:54;98167.22;;;20.69;74.13
4398;BME280;2213;49.720;7.296;2023-07-16T10:30:23;98151.28;;;20.69;73.11
4398;BME280;2213;49.720;7.296;2023-07-16T10:32:54;98159.25;;;20.69;71.42
4398;BME280;2213;49.720;7.296;2023-07-16T10:35:23;98150.28;;;20.75;72.83
4398;BME280;2213;49.720;7.296;2023-07-16T10:37:55;98152.44;;;20.78;72.86
4398;BME280;2213;49.720;7.296;2023-07-16T10:40:26;98150.31;;;20.80;72.08
4398;BME280;2213;49.720;7.296;2023-07-16T10:42:56;98156.44;;;20.80;72.35
4398;BME280;2213;49.720;7.296;2023-07-16T10:45:28;98162.06;;;20.84;72.42
4398;BME280;2213;49.720;7.296;2023-07-16T10:47:58;98161.56;;;20.87;72.39
4398;BME280;2213;49.720;7.296;2023-07-16T10:50:28;98155.72;;;20.90;71.72
4398;BME280;2213;49.720;7.296;2023-07-16T10:52:57;98162.44;;;20.92;71.49
4398;BME280;2213;49.720;7.296;2023-07-16T10:55:28;98158.16;;;20.91;72.03
4398;BME280;2213;49.720;7.296;2023-07-16T10:58:04;98146.50;;;20.97;73.42
4398;BME280;2213;49.720;7.296;2023-07-16T11:00:39;98155.81;;;20.95;71.62
4398;BME280;2213;49.720;7.296;2023-07-16T11:03:10;98151.28;;;20.95;71.20
4398;BME280;2213;49.720;7.296;2023-07-16T11:05:41;98149.16;;;20.97;72.26
4398;BME280;2213;49.720;7.296;2023-07-16T11:08:10;98164.88;;;20.99;71.83
4398;BME280;2213;49.720;7.296;2023-07-16T11:10:40;98149.97;;;20.98;71.92
4398;BME280;2213;49.720;7.296;2023-07-16T11:13:09;98158.50;;;21.00;72.92
4398;BME280;2213;49.720;7.296;2023-07-16T11:15:39;98157.97;;;20.98;72.18
4398;BME280;2213;49.720;7.296;2023-07-16T11:18:11;98165.44;;;21.01;72.48
4398;BME280;2213;49.720;7.296;2023-07-16T11:20:41;98160.19;;;21.06;73.02
4398;BME280;2213;49.720;7.296;2023-07-16T11:23:11;98156.53;;;21.12;73.03
4398;BME280;2213;49.720;7.296;2023-07-16T11:25:47;98152.81;;;21.13;72.74
4398;BME280;2213;49.720;7.296;2023-07-16T11:28:16;98155.28;;;21.20;73.59
4398;BME280;2213;49.720;7.296;2023-07-16T11:30:46;98163.28;;;21.25;72.93
4398;BME280;2213;49.720;7.296;2023-07-16T11:33:17;98155.59;;;21.28;71.43
4398;BME280;2213;49.720;7.296;2023-07-16T11:35:48;98160.38;;;21.26;70.86
4398;BME280;2213;49.720;7.296;2023-07-16T11:38:18;98160.69;;;21.30;71.42
4398;BME280;2213;49.720;7.296;2023-07-16T11:40:48;98158.56;;;21.32;71.86
4398;BME280;2213;49.720;7.296;2023-07-16T11:43:21;98151.97;;;21.34;71.09
4398;BME280;2213;49.720;7.296;2023-07-16T11:45:51;98157.00;;;21.36;70.93
4398;BME280;2213;49.720;7.296;2023-07-16T11:48:22;98152.56;;;21.41;70.86
4398;BME280;2213;49.720;7.296;2023-07-16T11:50:52;98149.91;;;21.46;70.14
4398;BME280;2213;49.720;7.296;2023-07-16T11:53:21;98144.88;;;21.50;68.29
4398;BME280;2213;49.720;7.296;2023-07-16T11:55:50;98146.28;;;21.57;69.07
4398;BME280;2213;49.720;7.296;2023-07-16T11:58:20;98150.56;;;21.64;68.84
4398;BME280;2213;49.720;7.296;2023-07-16T12:00:50;98147.41;;;21.67;68.07
4398;BME280;2213;49.720;7.296;2023-07-16T12:03:22;98144.75;;;21.67;67.07
4398;BME280;2213;49.720;7.296;2023-07-16T12:05:52;98137.34;;;21.74;68.41
4398;BME280;2213;49.720;7.296;2023-07-16T12:08:23;98143.25;;;21.81;68.25
4398;BME280;2213;49.720;7.296;2023-07-16T12:10:53;98133.16;;;21.83;64.76
4398;BME280;2213;49.720;7.296;2023-07-16T12:13:23;98136.06;;;21.81;64.82
4398;BME280;2213;49.720;7.296;2023-07-16T12:15:52;98136.16;;;21.91;66.15
4398;BME280;2213;49.720;7.296;2023-07-16T12:18:25;98125.03;;;22.04;67.67
4398;BME280;2213;49.720;7.296;2023-07-16T12:20:54;98129.34;;;22.11;65.71
4398;BME280;2213;49.720;7.296;2023-07-16T12:23:24;98129.09;;;22.17;63.14
4398;BME280;2213;49.720;7.296;2023-07-16T12:25:53;98127.25;;;22.23;62.78
4398;BME280;2213;49.720;7.296;2023-07-16T12:28:22;98125.94;;;22.25;62.21
4398;BME280;2213;49.720;7.296;2023-07-16T12:30:52;98125.94;;;22.25;62.91
4398;BME280;2213;49.720;7.296;2023-07-16T12:33:24;98119.59;;;22.31;62.88
4398;BME280;2213;49.720;7.296;2023-07-16T12:35:54;98123.31;;;22.35;62.77
4398;BME280;2213;49.720;7.296;2023-07-16T12:38:23;98126.53;;;22.42;63.21
4398;BME280;2213;49.720;7.296;2023-07-16T12:40:53;98125.75;;;22.47;63.35
4398;BME280;2213;49.720;7.296;2023-07-16T12:43:23;98126.06;;;22.55;63.90
4398;BME280;2213;49.720;7.296;2023-07-16T12:45:53;98125.81;;;22.62;62.96
4398;BME280;2213;49.720;7.296;2023-07-16T12:48:24;98126.13;;;22.71;61.84
4398;BME280;2213;49.720;7.296;2023-07-16T12:50:53;98135.47;;;22.68;60.37
4398;BME280;2213;49.720;7.296;2023-07-16T12:53:24;98122.38;;;22.67;60.79
4398;BME280;2213;49.720;7.296;2023-07-16T12:55:53;98128.78;;;22.71;61.98
4398;BME280;2213;49.720;7.296;2023-07-16T12:58:23;98122.13;;;22.68;61.77
4398;BME280;2213;49.720;7.296;2023-07-16T13:00:53;98119.50;;;22.73;63.02
4398;BME280;2213;49.720;7.296;2023-07-16T13:03:24;98126.69;;;22.73;61.28
4398;BME280;2213;49.720;7.296;2023-07-16T13:05:55;98131.47;;;22.76;62.20
4398;BME280;2213;49.720;7.296;2023-07-16T13:08:25;98132.00;;;22.73;61.31
4398;BME280;2213;49.720;7.296;2023-07-16T13:10:55;98134.16;;;22.76;61.92
4398;BME280;2213;49.720;7.296;2023-07-16T13:13:24;98140.53;;;22.75;62.25
4398;BME280;2213;49.720;7.296;2023-07-16T13:15:54;98138.97;;;22.79;63.70
4398;BME280;2213;49.720;7.296;2023-07-16T13:18:25;98142.44;;;22.84;64.20
4398;BME280;2213;49.720;7.296;2023-07-16T13:20:55;98127.25;;;22.90;63.78
4398;BME280;2213;49.720;7.296;2023-07-16T13:23:25;98139.00;;;22.94;64.27
4398;BME280;2213;49.720;7.296;2023-07-16T13:25:54;98144.63;;;22.97;61.28
4398;BME280;2213;49.720;7.296;2023-07-16T13:28:25;98134.47;;;22.99;62.34
4398;BME280;2213;49.720;7.296;2023-07-16T13:30:55;98133.94;;;23.02;63.22
4398;BME280;2213;49.720;7.296;2023-07-16T13:33:26;98130.19;;;23.08;62.27
4398;BME280;2213;49.720;7.296;2023-07-16T13:35:55;98133.16;;;23.07;60.54
4398;BME280;2213;49.720;7.296;2023-07-16T13:38:24;98131.28;;;23.13;60.86